Time;durP1;ratioP1;P1;durP2;ratioP2;P2;SDS_P1;SDS_P2;PMS_P1;PMS_P2;Temp;Humidity;BMP_temperature;BMP_pressure;BME280_temperature;BME280_humidity;BME280_pressure;Samples;Min_cycle;Max_cycle;Signal;HPM_P1;HPM_P2
2023/10/21 00:00:20;;;;;;;4.10;0.50;;;14.30;99.90;;;;;;4976778;28;21009;-68
2023/10/21 00:02:45;;;;;;;4.55;0.50;;;14.30;99.90;;;;;;4992354;28;20469;-68
2023/10/21 00:05:11;;;;;;;4.40;0.57;;;14.30;99.90;;;;;;4992271;28;20409;-68
2023/10/21 00:07:38;;;;;;;4.40;0.50;;;14.50;99.90;;;;;;4992062;28;20403;-68
2023/10/21 00:10:06;;;;;;;4.35;0.50;;;14.60;77.60;;;;;;4991737;28;20397;-67
2023/10/21 00:12:33;;;;;;;4.28;0.40;;;14.60;1.00;;;;;;4992554;28;20473;-67
2023/10/21 00:14:58;;;;;;;4.20;0.60;;;14.60;1.00;;;;;;4991657;28;20769;-67
2023/10/21 00:17:27;;;;;;;3.93;0.47;;;14.70;1.00;;;;;;4991316;28;20407;-68
2023/10/21 00:19:52;;;;;;;4.00;0.50;;;14.80;99.90;;;;;;4985707;28;20436;-67
2023/10/21 00:22:18;;;;;;;4.00;0.50;;;15.00;99.90;;;;;;4980862;28;20780;-67
2023/10/21 00:24:43;;;;;;;4.30;0.50;;;15.10;99.90;;;;;;4992126;28;20446;-67
2023/10/21 00:27:09;;;;;;;3.80;0.30;;;15.10;1.00;;;;;;4990475;28;20398;-68
2023/10/21 00:29:34;;;;;;;3.80;0.30;;;15.20;1.00;;;;;;4992306;28;20457;-67
2023/10/21 00:32:01;;;;;;;3.80;0.30;;;15.30;99.90;;;;;;4991446;28;20916;-68
2023/10/21 00:34:27;;;;;;;3.80;0.30;;;15.30;99.90;;;;;;4991467;28;20453;-68
2023/10/21 00:36:52;;;;;;;3.90;0.40;;;15.30;99.90;;;;;;4989381;28;20434;-67
2023/10/21 00:39:18;;;;;;;3.80;0.40;;;15.40;1.00;;;;;;4992234;28;20493;-68
2023/10/21 00:41:43;;;;;;;3.80;0.30;;;15.40;1.00;;;;;;4991793;28;20414;-67
2023/10/21 00:44:10;;;;;;;4.07;0.50;;;15.30;33.70;;;;;;4992079;28;20398;-68
2023/10/21 00:46:36;;;;;;;4.00;0.35;;;15.30;99.90;;;;;;4990625;28;20434;-72
2023/10/21 00:49:04;;;;;;;4.70;0.50;;;15.30;21.20;;;;;;4992128;28;20778;-68
2023/10/21 00:51:30;;;;;;;3.90;0.40;;;15.10;99.90;;;;;;4973968;28;20412;-68
2023/10/21 00:53:58;;;;;;;4.00;0.40;;;15.10;99.90;;;;;;4987823;28;20513;-68
2023/10/21 00:56:23;;;;;;;4.20;0.50;;;15.10;99.90;;;;;;4991528;28;20410;-68
2023/10/21 00:58:50;;;;;;;3.90;0.40;;;15.10;99.90;;;;;;4986996;28;20423;-67
2023/10/21 01:01:16;;;;;;;8.00;0.60;;;15.10;99.90;;;;;;4984163;28;20428;-67
2023/10/21 01:03:41;;;;;;;3.80;0.30;;;15.10;99.90;;;;;;4990750;28;20935;-67
2023/10/21 01:06:07;;;;;;;5.90;0.43;;;15.10;99.90;;;;;;4991211;28;20407;-68
2023/10/21 01:08:41;;;;;;;3.80;0.30;;;15.20;88.30;;;;;;4992101;28;20394;-67
2023/10/21 01:11:07;;;;;;;3.90;0.40;;;15.20;99.90;;;;;;4991484;28;20409;-67
2023/10/21 01:13:33;;;;;;;3.90;0.40;;;15.00;99.90;;;;;;4991858;28;20805;-67
2023/10/21 01:15:58;;;;;;;3.80;0.30;;;14.90;1.00;;;;;;4990604;28;20399;-67
2023/10/21 01:18:25;;;;;;;4.10;0.40;;;14.90;1.00;;;;;;4991114;28;20397;-67
2023/10/21 01:20:53;;;;;;;4.20;0.40;;;14.90;1.00;;;;;;4990991;28;20457;-67
2023/10/21 01:23:19;;;;;;;5.60;0.50;;;15.00;1.00;;;;;;4991212;28;20390;-67
2023/10/21 01:25:44;;;;;;;4.20;0.40;;;15.00;1.00;;;;;;4990993;28;20421;-67
2023/10/21 01:28:10;;;;;;;3.83;0.30;;;15.10;99.90;;;;;;4991089;28;20401;-68
2023/10/21 01:30:36;;;;;;;4.10;0.50;;;15.10;99.90;;;;;;4990849;28;20913;-71
2023/10/21 01:33:01;;;;;;;3.90;0.40;;;15.10;99.90;;;;;;4989450;28;20394;-67
2023/10/21 01:35:27;;;;;;;3.80;0.33;;;15.20;1.00;;;;;;4990361;28;20461;-68
2023/10/21 01:37:54;;;;;;;3.90;0.30;;;15.20;1.00;;;;;;4986526;28;20475;-67
2023/10/21 01:40:19;;;;;;;3.80;0.30;;;15.30;99.90;;;;;;4977083;28;20402;-67
2023/10/21 01:42:45;;;;;;;4.90;0.30;;;15.40;1.00;;;;;;4990891;28;20488;-68
2023/10/21 01:45:10;;;;;;;3.80;0.30;;;15.40;1.00;;;;;;4989696;28;20869;-68
2023/10/21 01:47:36;;;;;;;3.92;0.35;;;15.60;99.90;;;;;;4986371;28;20408;-68
2023/10/21 01:50:07;;;;;;;4.07;0.40;;;15.70;1.00;;;;;;4987171;28;20955;-68
2023/10/21 01:52:33;;;;;;;4.00;0.40;;;15.70;1.00;;;;;;4991421;28;20411;-68
2023/10/21 01:54:59;;;;;;;3.87;0.30;;;15.60;1.00;;;;;;4989157;28;20753;-68
2023/10/21 01:57:25;;;;;;;4.00;0.40;;;15.70;99.90;;;;;;4990684;28;20741;-69
2023/10/21 01:59:50;;;;;;;3.90;0.30;;;15.60;99.90;;;;;;4989610;28;20467;-68
2023/10/21 02:02:16;;;;;;;3.90;0.30;;;15.70;99.90;;;;;;4988908;28;20460;-68
2023/10/21 02:04:42;;;;;;;7.80;0.50;;;15.80;99.90;;;;;;4988359;28;20433;-68
2023/10/21 02:07:09;;;;;;;4.00;0.40;;;15.80;99.90;;;;;;4988781;28;20395;-68
2023/10/21 02:09:35;;;;;;;4.10;0.40;;;15.70;99.90;;;;;;4990433;28;20402;-68
2023/10/21 02:12:00;;;;;;;3.90;0.30;;;15.60;99.90;;;;;;4989887;28;20406;-66
2023/10/21 02:14:26;;;;;;;3.90;0.33;;;15.70;99.90;;;;;;4989947;28;20781;-68
2023/10/21 02:16:53;;;;;;;4.10;0.40;;;15.70;99.90;;;;;;4989538;28;20403;-68
2023/10/21 02:19:19;;;;;;;3.80;0.30;;;15.70;99.90;;;;;;4989487;28;20923;-68
2023/10/21 02:21:45;;;;;;;3.80;0.20;;;15.60;99.90;;;;;;4989941;28;20434;-67
2023/10/21 02:24:10;;;;;;;3.90;0.30;;;15.50;99.90;;;;;;4990372;28;20411;-68
2023/10/21 02:26:36;;;;;;;3.85;0.30;;;15.60;1.00;;;;;;4989961;28;20465;-69
2023/10/21 02:29:01;;;;;;;4.00;0.40;;;15.60;99.90;;;;;;4988683;28;20494;-68
2023/10/21 02:31:27;;;;;;;3.90;0.30;;;15.60;99.90;;;;;;4987471;28;20410;-68
2023/10/21 02:33:53;;;;;;;5.23;0.30;;;15.60;99.90;;;;;;4989549;28;20753;-68
2023/10/21 02:36:18;;;;;;;4.10;0.50;;;15.60;99.90;;;;;;4990091;28;20414;-68
2023/10/21 02:38:44;;;;;;;3.80;0.30;;;15.60;99.90;;;;;;4989552;28;20398;-68
2023/10/21 02:41:10;;;;;;;4.30;0.30;;;15.50;99.90;;;;;;4989646;28;20505;-68
2023/10/21 02:43:36;;;;;;;3.80;0.30;;;15.40;1.00;;;;;;4989885;28;20956;-71
2023/10/21 02:46:11;;;;;;;4.20;0.50;;;15.30;50.40;;;;;;4990323;28;20390;-67
2023/10/21 02:48:38;;;;;;;4.00;0.40;;;15.20;1.00;;;;;;4989652;28;20473;-68
2023/10/21 02:51:24;;;;;;;3.80;0.30;;;15.10;3.50;;;;;;4972438;28;20407;-68
2023/10/21 02:53:49;;;;;;;5.90;0.35;;;15.10;99.90;;;;;;4969952;28;20443;-68
2023/10/21 02:56:15;;;;;;;3.80;0.20;;;15.10;1.00;;;;;;4970032;28;20933;-68
2023/10/21 02:58:40;;;;;;;3.80;0.30;;;15.00;1.00;;;;;;4969864;28;20491;-70
2023/10/21 03:01:14;;;;;;;3.80;0.30;;;15.00;1.00;;;;;;4970283;28;20467;-69
2023/10/21 03:03:41;;;;;;;3.80;0.30;;;15.00;1.00;;;;;;4969991;28;20499;-69
2023/10/21 03:06:08;;;;;;;3.80;0.30;;;14.80;99.90;;;;;;4970137;28;20443;-69
2023/10/21 03:08:37;;;;;;;3.90;0.40;;;14.90;99.90;;;;;;4970650;28;20503;-68
2023/10/21 03:11:03;;;;;;;3.80;0.30;;;14.80;99.90;;;;;;4968985;28;20837;-68
2023/10/21 03:13:30;;;;;;;3.80;0.30;;;14.80;1.00;;;;;;4969970;28;20405;-69
2023/10/21 03:15:56;;;;;;;3.90;0.30;;;14.70;1.00;;;;;;4979515;28;20418;-69
2023/10/21 03:18:21;;;;;;;4.20;0.40;;;14.70;1.00;;;;;;4993007;28;20394;-68
2023/10/21 03:20:51;;;;;;;3.80;0.40;;;14.60;99.90;;;;;;4992973;28;20525;-68
2023/10/21 03:23:17;;;;;;;3.90;0.40;;;14.60;69.10;;;;;;4992623;28;20440;-68
2023/10/21 03:25:42;;;;;;;3.80;0.30;;;14.60;99.90;;;;;;4992841;28;20409;-69
2023/10/21 03:28:08;;;;;;;3.80;0.27;;;14.50;99.90;;;;;;4992537;28;20473;-69
2023/10/21 03:30:34;;;;;;;3.83;0.30;;;14.50;1.00;;;;;;4990694;28;20406;-69
2023/10/21 03:32:59;;;;;;;3.90;0.40;;;14.50;99.90;;;;;;4978331;28;20411;-68
2023/10/21 03:35:25;;;;;;;4.20;0.50;;;14.50;99.90;;;;;;4990607;28;20418;-68
2023/10/21 03:37:50;;;;;;;3.85;0.30;;;14.60;99.90;;;;;;4992371;28;20414;-69
2023/10/21 03:40:16;;;;;;;5.00;0.43;;;14.50;1.00;;;;;;4992696;28;20394;-68
2023/10/21 03:42:42;;;;;;;3.80;0.40;;;14.40;1.00;;;;;;4992643;28;20420;-69
2023/10/21 03:45:08;;;;;;;3.90;0.30;;;14.40;1.00;;;;;;4992520;28;20724;-69
2023/10/21 03:47:34;;;;;;;3.70;0.20;;;14.30;1.00;;;;;;4992734;28;20403;-68
2023/10/21 03:50:00;;;;;;;3.90;0.30;;;14.30;1.00;;;;;;4992392;28;20410;-69
2023/10/21 03:52:25;;;;;;;4.10;0.32;;;14.20;99.90;;;;;;4990981;28;20960;-70
2023/10/21 03:54:51;;;;;;;3.90;0.40;;;14.30;1.00;;;;;;4992122;28;20896;-68
2023/10/21 03:57:16;;;;;;;4.00;0.33;;;14.30;1.00;;;;;;4989961;28;20398;-69
2023/10/21 03:59:42;;;;;;;3.80;0.30;;;14.40;1.00;;;;;;4978980;28;20425;-68
2023/10/21 04:02:07;;;;;;;3.80;0.30;;;14.20;1.00;;;;;;4990525;28;20453;-69
2023/10/21 04:04:33;;;;;;;4.70;0.40;;;14.30;1.00;;;;;;4992371;28;20411;-68
2023/10/21 04:06:59;;;;;;;3.80;0.30;;;14.20;1.00;;;;;;4992159;28;20399;-68
2023/10/21 04:09:26;;;;;;;3.80;0.40;;;14.20;1.00;;;;;;4991447;28;20410;-68
2023/10/21 04:11:53;;;;;;;3.70;0.30;;;14.20;1.00;;;;;;4990631;28;20441;-69
2023/10/21 04:14:18;;;;;;;3.78;0.30;;;14.20;1.00;;;;;;4975462;28;20417;-69
2023/10/21 04:16:44;;;;;;;3.90;0.30;;;14.10;79.10;;;;;;4989404;28;20414;-68
2023/10/21 04:19:10;;;;;;;3.80;0.40;;;14.10;99.70;;;;;;4989727;28;20410;-68
2023/10/21 04:21:36;;;;;;;3.90;0.40;;;14.10;99.90;;;;;;4991724;28;20426;-69
2023/10/21 04:24:03;;;;;;;4.40;0.40;;;14.10;69.50;;;;;;4990793;28;20749;-68
2023/10/21 04:26:29;;;;;;;6.20;0.50;;;14.20;1.00;;;;;;4990929;28;20820;-69
2023/10/21 04:28:54;;;;;;;3.70;0.30;;;14.20;1.90;;;;;;4986550;28;20415;-68
2023/10/21 04:31:20;;;;;;;3.80;0.30;;;14.20;1.00;;;;;;4988741;28;20780;-68
2023/10/21 04:33:45;;;;;;;4.70;0.40;;;14.30;1.00;;;;;;4991560;28;20409;-69
2023/10/21 04:36:11;;;;;;;3.70;0.30;;;14.40;1.00;;;;;;4991109;28;20403;-68
2023/10/21 04:38:37;;;;;;;3.70;0.30;;;14.30;1.00;;;;;;4991743;28;20497;-69
2023/10/21 04:41:02;;;;;;;5.33;0.60;;;14.30;1.00;;;;;;4991584;28;20516;-69
2023/10/21 04:43:28;;;;;;;3.85;0.30;;;14.30;1.00;;;;;;4972313;28;20794;-68
2023/10/21 04:45:54;;;;;;;5.30;0.40;;;14.30;1.00;;;;;;4986365;28;20406;-68
2023/10/21 04:48:19;;;;;;;3.90;0.40;;;14.30;1.00;;;;;;4991393;28;20433;-68
2023/10/21 04:50:45;;;;;;;3.70;0.30;;;14.30;1.00;;;;;;4991450;28;20501;-68
2023/10/21 04:53:11;;;;;;;3.90;0.30;;;14.20;1.00;;;;;;4991315;28;20395;-69
2023/10/21 04:55:36;;;;;;;3.72;0.30;;;14.20;47.20;;;;;;4990702;28;20514;-72
2023/10/21 04:58:02;;;;;;;3.80;0.30;;;14.20;27.00;;;;;;4991680;28;20800;-68
2023/10/21 05:00:28;;;;;;;3.70;0.30;;;14.20;1.00;;;;;;4990777;28;20410;-68
2023/10/21 05:02:54;;;;;;;3.80;0.35;;;14.20;1.00;;;;;;4970166;28;20774;-69
2023/10/21 05:05:20;;;;;;;3.70;0.30;;;14.20;1.00;;;;;;4986572;28;20411;-68
2023/10/21 05:07:45;;;;;;;3.90;0.40;;;14.20;1.00;;;;;;4991024;28;20710;-69
2023/10/21 05:10:11;;;;;;;3.90;0.40;;;14.20;1.00;;;;;;4990570;28;20772;-69
2023/10/21 05:12:36;;;;;;;3.93;0.40;;;14.20;34.80;;;;;;4990553;28;20402;-68
2023/10/21 05:15:03;;;;;;;3.90;0.40;;;14.10;1.00;;;;;;4988367;28;20824;-68
2023/10/21 05:17:29;;;;;;;4.10;0.57;;;14.10;1.00;;;;;;4985070;28;20404;-69
2023/10/21 05:19:54;;;;;;;3.80;0.30;;;14.10;99.90;;;;;;4980029;28;20617;-68
2023/10/21 05:22:21;;;;;;;4.00;0.50;;;14.10;99.90;;;;;;4978543;28;20459;-68
2023/10/21 05:24:46;;;;;;;3.80;0.40;;;14.20;78.40;;;;;;4981516;28;20938;-69
2023/10/21 05:27:12;;;;;;;3.80;0.30;;;14.20;38.50;;;;;;4985639;28;20434;-69
2023/10/21 05:29:37;;;;;;;4.60;0.60;;;14.30;1.00;;;;;;4987528;28;20420;-68
2023/10/21 05:32:03;;;;;;;6.20;0.80;;;14.40;1.00;;;;;;4985292;28;20404;-68
2023/10/21 05:34:29;;;;;;;4.00;0.30;;;14.40;1.00;;;;;;4983512;28;20896;-69
2023/10/21 05:36:54;;;;;;;3.83;0.32;;;14.40;1.00;;;;;;4989587;28;20410;-68
2023/10/21 05:39:21;;;;;;;4.18;0.43;;;14.30;30.50;;;;;;4985488;28;20399;-73
2023/10/21 05:41:47;;;;;;;3.80;0.50;;;14.30;55.10;;;;;;4983399;28;20442;-73
2023/10/21 05:44:12;;;;;;;3.70;0.30;;;14.40;45.00;;;;;;4989864;28;20982;-73
2023/10/21 05:46:38;;;;;;;4.32;0.47;;;14.40;1.00;;;;;;4983783;28;20413;-72
2023/10/21 05:49:04;;;;;;;4.30;0.70;;;14.40;1.00;;;;;;5004230;28;20415;-69
2023/10/21 05:51:30;;;;;;;4.05;0.52;;;14.40;30.90;;;;;;4984900;28;20430;-73
2023/10/21 05:53:57;;;;;;;3.75;0.30;;;14.30;99.90;;;;;;4989633;28;20519;-73
2023/10/21 05:56:23;;;;;;;4.00;0.40;;;14.30;99.90;;;;;;4986561;28;20801;-73
2023/10/21 05:58:49;;;;;;;3.70;0.30;;;14.30;99.90;;;;;;4988016;28;20426;-67
2023/10/21 06:01:16;;;;;;;3.70;0.30;;;14.30;99.90;;;;;;4990027;28;20414;-68
2023/10/21 06:03:42;;;;;;;3.70;0.30;;;14.40;99.90;;;;;;4981815;28;20568;-68
2023/10/21 06:06:07;;;;;;;3.70;0.30;;;14.40;99.90;;;;;;4996528;28;20489;-67
2023/10/21 06:08:33;;;;;;;3.70;0.30;;;14.40;99.90;;;;;;4983551;28;20761;-67
2023/10/21 06:10:59;;;;;;;4.10;0.50;;;14.30;99.90;;;;;;4986969;28;20897;-68
2023/10/21 06:13:25;;;;;;;4.00;0.40;;;14.20;99.90;;;;;;4988897;28;20484;-67
2023/10/21 06:15:51;;;;;;;3.70;0.40;;;14.20;99.90;;;;;;4970838;28;20416;-68
2023/10/21 06:18:17;;;;;;;4.10;0.40;;;14.20;99.90;;;;;;4985891;28;20718;-68
2023/10/21 06:20:48;;;;;;;5.10;0.70;;;14.20;99.90;;;;;;4987415;28;20423;-68
2023/10/21 06:23:14;;;;;;;4.13;0.30;;;14.20;99.90;;;;;;4988426;28;20429;-68
2023/10/21 06:25:40;;;;;;;3.70;0.38;;;14.30;99.90;;;;;;4988985;28;20402;-68
2023/10/21 06:28:07;;;;;;;3.70;0.40;;;14.30;99.90;;;;;;4988771;28;20456;-68
2023/10/21 06:30:36;;;;;;;3.70;0.30;;;14.40;99.90;;;;;;4988233;28;20916;-67
2023/10/21 06:33:03;;;;;;;3.70;0.30;;;14.50;99.90;;;;;;4989375;28;20540;-67
2023/10/21 06:35:29;;;;;;;3.90;0.35;;;14.60;99.90;;;;;;4987697;28;20418;-67
2023/10/21 06:37:54;;;;;;;3.70;0.40;;;14.70;99.90;;;;;;4987521;28;20757;-68
2023/10/21 06:40:20;;;;;;;4.00;0.30;;;14.80;99.90;;;;;;4988074;28;20469;-68
2023/10/21 06:42:46;;;;;;;3.80;0.30;;;14.90;1.00;;;;;;4987172;28;20492;-68
2023/10/21 06:45:11;;;;;;;5.20;0.40;;;14.90;1.00;;;;;;4987819;28;20424;-68
2023/10/21 06:47:37;;;;;;;4.20;0.40;;;15.00;1.00;;;;;;4988509;28;20405;-67
2023/10/21 06:50:04;;;;;;;3.97;0.47;;;15.10;99.90;;;;;;4987709;28;20488;-67
2023/10/21 06:52:30;;;;;;;3.80;0.40;;;15.10;99.90;;;;;;4988163;28;20484;-67
2023/10/21 06:54:55;;;;;;;4.18;0.52;;;15.40;99.90;;;;;;4987562;28;21073;-67
2023/10/21 06:57:21;;;;;;;4.20;0.47;;;16.60;1.00;;;;;;4988384;28;20792;-67
2023/10/21 06:59:47;;;;;;;4.80;0.40;;;;;;;;;;4988825;28;20414;-66
2023/10/21 07:02:14;;;;;;;4.20;0.40;;;;;;;;;;4988491;28;20430;-68
2023/10/21 07:04:40;;;;;;;5.57;0.50;;;;;;;;;;4986360;28;20460;-69
2023/10/21 07:07:06;;;;;;;4.30;0.50;;;;;;;;;;4988808;28;20418;-68
2023/10/21 07:09:32;;;;;;;4.38;0.40;;;;;;;;;;4987467;28;20414;-68
2023/10/21 07:11:58;;;;;;;4.50;0.50;;;;;;;;;;4987819;28;20406;-69
2023/10/21 07:14:23;;;;;;;4.40;0.50;;;23.50;99.90;;;;;;4987709;28;20468;-69
2023/10/21 07:16:48;;;;;;;4.40;0.60;;;23.30;99.90;;;;;;4985391;28;20406;-69
2023/10/21 07:19:14;;;;;;;4.30;0.50;;;23.80;99.90;;;;;;4986777;28;20501;-69
2023/10/21 07:21:40;;;;;;;4.47;0.52;;;24.40;99.90;;;;;;4988024;28;20426;-69
2023/10/21 07:24:06;;;;;;;5.30;0.50;;;24.50;99.90;;;;;;4986191;28;20416;-69
2023/10/21 07:26:32;;;;;;;5.00;0.70;;;24.70;99.90;;;;;;4987517;28;20840;-69
2023/10/21 07:28:58;;;;;;;4.82;0.50;;;24.90;99.90;;;;;;4987416;28;20414;-69
2023/10/21 07:31:23;;;;;;;7.40;0.60;;;24.90;99.90;;;;;;4987777;28;20801;-68
2023/10/21 07:33:52;;;;;;;4.47;0.50;;;24.70;99.90;;;;;;4982651;28;20416;-69
2023/10/21 07:36:18;;;;;;;4.50;0.50;;;24.60;99.90;;;;;;4987111;28;20916;-69
2023/10/21 07:38:43;;;;;;;4.33;0.50;;;25.00;99.90;;;;;;4987849;28;20416;-69
2023/10/21 07:41:12;;;;;;;4.50;0.57;;;25.50;99.90;;;;;;4987813;28;20574;-69
2023/10/21 07:43:38;;;;;;;4.30;0.40;;;26.20;99.90;;;;;;4987377;28;20417;-69
2023/10/21 07:46:04;;;;;;;4.20;0.30;;;26.40;99.90;;;;;;4987933;28;20403;-69
2023/10/21 07:48:31;;;;;;;4.50;0.47;;;26.30;99.90;;;;;;4987901;28;20464;-69
2023/10/21 07:50:56;;;;;;;4.43;0.40;;;26.50;99.90;;;;;;4988088;28;20410;-69
2023/10/21 07:53:22;;;;;;;4.50;0.40;;;26.00;99.90;;;;;;4986914;28;20417;-68
2023/10/21 07:55:51;;;;;;;4.30;0.40;;;25.10;99.90;;;;;;4987525;28;20398;-69
2023/10/21 07:58:16;;;;;;;4.32;0.40;;;23.80;99.90;;;;;;4986605;28;20434;-68
2023/10/21 08:00:42;;;;;;;4.50;0.50;;;22.50;99.90;;;;;;4988127;28;20847;-68
2023/10/21 08:03:08;;;;;;;4.40;0.60;;;21.70;99.90;;;;;;4989491;28;20497;-68
2023/10/21 08:05:33;;;;;;;4.70;0.70;;;20.90;99.90;;;;;;4992906;28;20485;-68
2023/10/21 08:07:59;;;;;;;5.10;0.50;;;21.30;99.90;;;;;;4992395;28;20398;-68
2023/10/21 08:10:25;;;;;;;5.70;0.60;;;22.40;99.90;;;;;;4990903;28;20402;-68
2023/10/21 08:12:50;;;;;;;4.55;0.50;;;23.60;99.90;;;;;;4992732;28;20398;-67
2023/10/21 08:15:16;;;;;;;4.90;0.50;;;24.50;99.90;;;;;;4989096;28;20403;-68
2023/10/21 08:17:42;;;;;;;4.20;0.40;;;24.80;99.90;;;;;;4972761;28;20428;-68
2023/10/21 08:20:07;;;;;;;4.70;0.63;;;23.90;99.90;;;;;;4990580;28;20885;-68
2023/10/21 08:22:34;;;;;;;4.40;0.50;;;;;;;;;;4992734;28;20928;-68
2023/10/21 08:25:00;;;;;;;4.30;0.50;;;22.60;99.90;;;;;;4991862;28;20473;-68
2023/10/21 08:27:26;;;;;;;5.10;0.60;;;23.00;99.90;;;;;;4992543;28;22059;-68
2023/10/21 08:29:53;;;;;;;4.65;0.50;;;23.40;99.90;;;;;;4992190;28;20406;-68
2023/10/21 08:32:18;;;;;;;5.13;0.45;;;23.20;99.90;;;;;;4991241;28;20926;-68
2023/10/21 08:34:44;;;;;;;4.40;0.50;;;24.00;99.90;;;;;;4985562;28;20402;-69
2023/10/21 08:37:09;;;;;;;4.60;0.60;;;24.50;99.90;;;;;;4972668;28;20398;-68
2023/10/21 08:39:35;;;;;;;4.40;0.50;;;24.30;99.90;;;;;;4972799;28;20479;-68
2023/10/21 08:42:02;;;;;;;4.20;0.30;;;24.50;99.90;;;;;;4973232;28;20743;-68
2023/10/21 08:44:30;;;;;;;4.30;0.43;;;24.10;99.90;;;;;;4972350;28;20424;-68
2023/10/21 08:46:57;;;;;;;4.50;0.50;;;23.80;99.90;;;;;;4972298;28;21229;-67
2023/10/21 08:49:24;;;;;;;4.30;0.40;;;;;;;;;;4972760;28;20890;-68
2023/10/21 08:51:52;;;;;;;4.60;0.60;;;23.40;99.90;;;;;;4972126;28;20388;-68
2023/10/21 08:54:19;;;;;;;4.70;0.70;;;23.60;99.90;;;;;;4971939;28;20526;-68
2023/10/21 08:56:44;;;;;;;4.40;0.40;;;24.50;99.90;;;;;;4972529;28;20403;-68
2023/10/21 08:59:10;;;;;;;4.40;0.50;;;24.90;99.90;;;;;;4979173;28;20383;-69
2023/10/21 09:01:36;;;;;;;4.40;0.50;;;24.10;99.90;;;;;;4991930;28;20454;-74
2023/10/21 09:04:03;;;;;;;4.20;0.40;;;23.90;99.90;;;;;;4991681;28;20772;-68
2023/10/21 09:06:29;;;;;;;4.30;0.50;;;23.60;99.90;;;;;;4991640;28;20448;-68
2023/10/21 09:08:54;;;;;;;4.30;0.50;;;22.90;99.90;;;;;;4990895;28;20394;-68
2023/10/21 09:11:24;;;;;;;4.20;0.40;;;23.70;99.90;;;;;;4987772;28;20773;-68
2023/10/21 09:13:52;;;;;;;4.80;0.50;;;23.70;99.90;;;;;;4984834;28;20867;-68
2023/10/21 09:16:19;;;;;;;4.30;0.50;;;23.40;99.90;;;;;;4989503;28;20733;-68
2023/10/21 09:19:10;;;;;;;4.90;0.50;;;23.40;99.90;;;;;;4991172;28;20742;-68
2023/10/21 09:21:41;;;;;;;4.30;0.50;;;23.30;99.90;;;;;;4991360;28;20438;-68
2023/10/21 09:24:12;;;;;;;6.30;0.60;;;24.10;99.90;;;;;;4991100;28;20399;-68
2023/10/21 09:26:43;;;;;;;6.30;0.50;;;24.00;99.90;;;;;;4990781;28;20465;-68
2023/10/21 09:29:22;;;;;;;4.50;0.50;;;23.60;99.90;;;;;;4988914;28;20399;-69
2023/10/21 09:31:54;;;;;;;4.50;0.50;;;24.10;99.90;;;;;;4990273;28;20393;-67
2023/10/21 09:34:28;;;;;;;4.40;0.40;;;24.20;99.90;;;;;;4990836;28;20391;-67
2023/10/21 09:37:04;;;;;;;4.30;0.40;;;25.30;99.90;;;;;;4989350;28;20403;-68
2023/10/21 09:39:36;;;;;;;5.10;0.60;;;26.20;99.90;;;;;;4988176;28;20399;-68
2023/10/21 09:42:05;;;;;;;4.80;0.30;;;26.60;99.90;;;;;;4990431;28;20524;-68
2023/10/21 09:44:33;;;;;;;4.50;0.60;;;27.00;99.90;;;;;;4989184;28;20973;-68
2023/10/21 09:47:03;;;;;;;4.40;0.50;;;27.20;99.90;;;;;;4989794;28;20496;-68
2023/10/21 09:49:35;;;;;;;4.40;0.40;;;27.10;99.90;;;;;;4985592;28;20449;-68
2023/10/21 09:52:05;;;;;;;4.80;0.50;;;27.20;99.90;;;;;;4972465;28;20467;-68
2023/10/21 09:54:40;;;;;;;10.10;0.60;;;26.90;99.90;;;;;;4990992;28;20431;-68
2023/10/21 09:57:10;;;;;;;4.30;0.40;;;26.10;99.90;;;;;;4990648;28;20877;-67
2023/10/21 09:59:37;;;;;;;4.40;0.50;;;25.40;99.90;;;;;;4989143;28;20837;-67
2023/10/21 10:02:04;;;;;;;4.70;0.50;;;25.80;99.90;;;;;;4978090;28;20515;-68
2023/10/21 10:04:32;;;;;;;4.20;0.45;;;25.70;99.90;;;;;;4972221;28;20810;-68
2023/10/21 10:06:58;;;;;;;4.60;0.60;;;24.80;99.90;;;;;;4988233;28;20446;-67
2023/10/21 10:09:26;;;;;;;5.30;0.40;;;24.00;99.90;;;;;;4989206;28;20530;-68
2023/10/21 10:11:53;;;;;;;5.30;0.50;;;23.60;99.90;;;;;;4974187;28;20478;-68
2023/10/21 10:14:19;;;;;;;4.40;0.50;;;23.60;99.90;;;;;;4970713;28;20401;-68
2023/10/21 10:16:44;;;;;;;4.30;0.50;;;23.60;99.90;;;;;;4985383;28;20391;-68
2023/10/21 10:19:12;;;;;;;4.93;0.70;;;23.90;99.90;;;;;;4979104;28;20434;-68
2023/10/21 10:21:41;;;;;;;4.30;0.50;;;23.60;99.90;;;;;;4988878;28;20431;-68
2023/10/21 10:24:07;;;;;;;4.60;0.60;;;23.30;99.90;;;;;;4987711;28;20410;-68
2023/10/21 10:26:37;;;;;;;4.30;0.50;;;22.70;99.90;;;;;;4977652;28;20416;-68
2023/10/21 10:29:25;;;;;;;4.60;0.50;;;22.20;99.90;;;;;;4987989;28;20406;-68
2023/10/21 10:32:10;;;;;;;4.23;0.40;;;21.80;99.90;;;;;;4990162;28;20394;-68
2023/10/21 10:34:48;;;;;;;4.50;0.47;;;22.50;99.90;;;;;;4988230;28;20758;-68
2023/10/21 10:37:49;;;;;;;4.60;0.70;;;24.10;99.90;;;;;;4989593;28;20426;-68
2023/10/21 10:40:18;;;;;;;5.20;0.40;;;25.20;99.90;;;;;;4984978;28;20438;-68
2023/10/21 10:42:45;;;;;;;5.90;0.43;;;25.30;99.90;;;;;;4988679;28;20861;-68
2023/10/21 10:45:10;;;;;;;5.20;0.60;;;22.50;99.90;;;;;;4989212;28;20835;-67
2023/10/21 10:47:37;;;;;;;4.20;0.40;;;21.80;99.90;;;;;;4989878;28;20391;-68
2023/10/21 10:50:11;;;;;;;4.30;0.50;;;21.50;99.90;;;;;;4990212;28;20403;-68
2023/10/21 10:52:37;;;;;;;4.40;0.70;;;21.90;99.90;;;;;;4988973;28;20406;-68
2023/10/21 10:55:03;;;;;;;4.30;0.50;;;21.30;99.90;;;;;;4989762;28;20402;-68
2023/10/21 10:57:29;;;;;;;4.55;0.50;;;20.40;99.90;;;;;;4989225;28;20405;-68
2023/10/21 10:59:55;;;;;;;4.50;0.60;;;20.20;99.90;;;;;;4983833;28;20584;-68
2023/10/21 11:02:21;;;;;;;4.40;0.60;;;20.10;99.90;;;;;;4989303;28;20437;-68
2023/10/21 11:04:49;;;;;;;4.53;0.65;;;19.50;99.90;;;;;;4975193;28;20395;-68
2023/10/21 11:07:25;;;;;;;4.30;0.60;;;19.50;99.90;;;;;;4988145;28;20437;-68
2023/10/21 11:10:02;;;;;;;4.60;0.60;;;19.80;99.90;;;;;;4983489;28;20428;-68
2023/10/21 11:12:27;;;;;;;4.57;0.70;;;20.10;99.90;;;;;;4989434;28;20395;-68
2023/10/21 11:14:53;;;;;;;4.80;0.70;;;20.40;99.90;;;;;;4988717;28;20932;-69
2023/10/21 11:17:19;;;;;;;4.40;0.60;;;20.50;99.90;;;;;;4990050;28;20402;-74
2023/10/21 11:19:45;;;;;;;4.30;0.50;;;20.40;99.90;;;;;;4988431;28;20473;-75
2023/10/21 11:22:21;;;;;;;4.50;0.70;;;20.70;99.90;;;;;;4990000;28;20425;-73
2023/10/21 11:24:47;;;;;;;4.50;0.50;;;20.80;99.90;;;;;;4990118;28;20401;-74
2023/10/21 11:27:14;;;;;;;4.20;0.40;;;20.50;99.90;;;;;;4989921;28;20399;-74
2023/10/21 11:29:40;;;;;;;4.30;0.50;;;20.30;99.90;;;;;;4988431;28;20434;-73
2023/10/21 11:32:11;;;;;;;4.60;0.60;;;20.00;99.90;;;;;;4989471;28;20421;-73
2023/10/21 11:34:37;;;;;;;5.80;0.80;;;19.80;99.90;;;;;;4989822;28;20387;-73
2023/10/21 11:37:04;;;;;;;4.55;0.60;;;20.00;99.90;;;;;;4991614;28;20402;-73
2023/10/21 11:39:31;;;;;;;4.38;0.45;;;19.70;99.90;;;;;;4992243;28;20406;-73
2023/10/21 11:41:57;;;;;;;4.32;0.60;;;19.60;99.90;;;;;;4992064;28;20418;-73
2023/10/21 11:44:27;;;;;;;5.00;0.60;;;19.60;99.90;;;;;;4991946;28;20420;-73
2023/10/21 11:46:57;;;;;;;4.30;0.57;;;19.30;99.90;;;;;;4991536;28;20409;-73
2023/10/21 11:49:23;;;;;;;4.30;0.50;;;19.30;99.90;;;;;;4992237;28;20397;-73
2023/10/21 11:51:54;;;;;;;9.50;0.60;;;19.30;99.90;;;;;;4992033;28;20398;-73
2023/10/21 11:55:20;;;;;;;4.60;0.70;;;19.40;99.90;;;;;;4992103;28;20826;-73
2023/10/21 12:21:21;;;;;;;4.20;0.40;;;19.60;99.90;;;;;;4974067;28;20428;-73
2023/10/21 12:24:07;;;;;;;4.20;0.45;;;19.10;99.90;;;;;;4973541;28;20724;-73
2023/10/21 12:34:48;;;;;;;5.70;0.40;;;19.60;99.90;;;;;;4972216;28;20412;-72
2023/10/21 12:37:28;;;;;;;5.10;0.40;;;19.40;99.90;;;;;;4973553;28;20488;-73
2023/10/21 12:39:58;;;;;;;4.10;0.40;;;19.30;99.90;;;;;;4971590;28;20408;-72
2023/10/21 12:42:28;;;;;;;4.50;0.70;;;19.20;99.90;;;;;;4989541;28;20510;-73
2023/10/21 12:44:57;;;;;;;5.50;1.40;;;19.10;99.90;;;;;;4992527;28;20394;-73
2023/10/21 12:47:23;;;;;;;4.40;0.60;;;19.00;99.90;;;;;;4992389;28;20399;-73
2023/10/21 12:49:51;;;;;;;5.40;0.80;;;18.90;99.90;;;;;;4992096;28;20394;-73
2023/10/21 12:52:17;;;;;;;6.13;1.58;;;18.90;99.90;;;;;;4992332;28;20398;-73
2023/10/21 12:54:43;;;;;;;4.70;0.95;;;18.70;99.90;;;;;;4989699;28;20406;-73
2023/10/21 12:57:11;;;;;;;4.60;0.63;;;18.60;99.90;;;;;;4992326;28;20382;-73
2023/10/21 12:59:36;;;;;;;4.40;0.50;;;18.60;99.90;;;;;;4991843;28;20896;-74
2023/10/21 13:02:07;;;;;;;4.80;0.70;;;18.60;99.90;;;;;;4990660;28;20435;-73
2023/10/21 13:04:37;;;;;;;4.35;0.50;;;18.60;99.90;;;;;;4992993;28;20449;-73
2023/10/21 13:07:08;;;;;;;5.60;0.60;;;18.70;99.90;;;;;;4991068;28;21236;-73
2023/10/21 13:09:34;;;;;;;4.20;0.50;;;18.90;99.90;;;;;;4992099;28;20383;-73
2023/10/21 13:12:09;;;;;;;4.50;0.60;;;19.00;99.90;;;;;;4975130;28;20482;-73
2023/10/21 13:14:34;;;;;;;5.10;0.70;;;19.30;99.90;;;;;;4972841;28;20476;-73
2023/10/21 13:17:00;;;;;;;4.50;0.60;;;19.40;99.90;;;;;;4972175;28;20503;-73
2023/10/21 13:19:26;;;;;;;4.40;0.50;;;19.50;99.90;;;;;;4972036;28;20430;-73
2023/10/21 13:21:53;;;;;;;4.30;0.50;;;19.70;99.90;;;;;;4972052;28;20478;-73
2023/10/21 13:24:20;;;;;;;4.38;0.50;;;19.50;99.90;;;;;;4972075;28;20442;-73